Flight Track Log - Related Links

Times and Time Zones

All times are in EDT time to prevent confusion due to time zone crossing. See the UPS1337 flight status page for this flight to view local times or setup timezone preferences in your user account.

Time Position Orientation Groundspeed Altitude Reporting Facility
EDT Latitude Longitude Course Direction KTS MPH feet Rate Location/Type
Tue 09:36:52 PM 27.9167 -82.6833 319° Northwest 173 199 700  Level Tampa TRACON
Tue 09:37:10 PM 27.9333 -82.7000 319° Northwest 154 177 1,700 2,231 Climbing Tampa TRACON
Tue 09:38:10 PM 27.9833 -82.6833 16° North 242 278 3,600 2,150 Climbing Tampa TRACON
Tue 09:39:10 PM 28.0667 -82.6667 10° North 298 343 6,000 2,308 Climbing Tampa TRACON
Tue 09:44:40 PM 28.6104 -82.5605 North 436 502 18,600 2,276 Climbing FlightAware ADS-B
Tue 09:45:48 PM 28.7542 -82.5615 359° North 446 513 21,100 1,924 Climbing FlightAware ADS-B
Tue 09:50:48 PM 29.4572 -82.5582 North 515 593 30,400 1,860 Climbing FlightAware ADS-B
Tue 09:51:17 PM 29.5222 -82.5580 360° North 515 593 31,300 1,800 Climbing FlightAware ADS-B
Tue 09:51:48 PM 29.6004 -82.5578 North 512 589 32,200 1,672 Climbing FlightAware ADS-B
Tue 09:52:18 PM 29.6721 -82.5574 North 511 588 33,000 774 Climbing FlightAware ADS-B
Tue 09:52:50 PM 29.7398 -82.5571 North 520 598 33,000  Level FlightAware ADS-B
Tue 09:53:40 PM 29.8644 -82.5554 North 519 597 33,000  Level FlightAware ADS-B
Tue 09:54:11 PM 29.9432 -82.5551 North 517 595 33,000  Level FlightAware ADS-B
Tue 09:54:21 PM 29.9672 -82.5550 360° North 516 594 33,000  Level FlightAware ADS-B
Tue 09:54:52 PM 30.0386 -82.5549 North 512 589 33,000  Level FlightAware ADS-B
Tue 09:55:01 PM 30.0595 -82.5548 360° North 512 589 33,000  Level FlightAware ADS-B
Tue 09:55:32 PM 30.1359 -82.5547 North 511 588 33,000  Level FlightAware ADS-B
Tue 09:56:12 PM 30.2312 -82.5543 North 515 593 33,000  Level FlightAware ADS-B
Tue 09:56:42 PM 30.3035 -82.5541 North 518 596 33,000  Level FlightAware ADS-B
Tue 09:57:27 PM 30.4123 -82.5536 North 521 600 33,000  Level FlightAware ADS-B
Tue 09:58:07 PM 30.5083 -82.5531 North 519 597 33,000  Level FlightAware ADS-B
Tue 09:59:16 PM 30.6756 -82.5461 North 519 597 33,000  Level FlightAware ADS-B
Tue 10:02:07 PM 31.0854 -82.5284 North 517 595 33,000  Level FlightAware ADS-B
Tue 10:03:33 PM 31.2683 -82.5231 North 512 589 33,000  Level Jacksonville Center
Tue 10:04:33 PM 31.4247 -82.5128 North 512 589 33,000  Level Jacksonville Center
Tue 10:05:33 PM 31.5625 -82.5244 356° North 512 589 33,000  Level Jacksonville Center
Tue 10:06:34 PM 31.6856 -82.5600 346° North 500 575 33,000  Level Atlanta Center
Tue 10:07:34 PM 31.8156 -82.6017 345° North 495 570 33,000  Level Atlanta Center
Tue 10:08:34 PM 31.9433 -82.6439 344° North 484 557 33,000  Level Atlanta Center
Tue 10:09:34 PM 32.0794 -82.6883 345° North 484 557 33,000  Level Atlanta Center
Tue 10:10:34 PM 32.2114 -82.7328 344° North 484 557 33,000  Level Atlanta Center
Tue 10:11:34 PM 32.3392 -82.7778 343° North 484 557 33,000  Level Atlanta Center
Tue 10:12:34 PM 32.4692 -82.8225 344° North 479 551 33,000  Level Atlanta Center
Tue 10:13:34 PM 32.5925 -82.8628 345° North 472 543 33,000  Level Atlanta Center
Tue 10:14:34 PM 32.7225 -82.9056 345° North 472 543 33,000  Level Atlanta Center
Tue 10:15:34 PM 32.8500 -82.9508 343° North 477 549 33,000  Level Atlanta Center
Tue 10:16:34 PM 32.9819 -82.9964 344° North 483 556 33,000  Level Atlanta Center
Tue 10:17:34 PM 33.1075 -83.0394 344° North 473 544 33,000  Level Atlanta Center
Tue 10:18:34 PM 33.2353 -83.0828 344° North 468 539 33,000  Level Atlanta Center
Tue 10:19:34 PM 33.3567 -83.1236 344° North 455 524 33,000  Level Atlanta Center
Tue 10:20:34 PM 33.4822 -83.1647 345° North 461 531 33,000  Level Atlanta Center
Tue 10:21:34 PM 33.6014 -83.2058 344° North 453 521 33,000  Level Atlanta Center
Tue 10:27:07 PM 34.2983 -83.4843 341° North 448 516 33,000  Level FlightAware ADS-B (KDZJ)
Tue 10:27:48 PM 34.3795 -83.5183 341° North 446 513 33,000  Level FlightAware ADS-B (KDZJ)
Tue 10:28:28 PM 34.4589 -83.5514 341° North 443 510 33,000  Level FlightAware ADS-B (KDZJ)
Tue 10:29:07 PM 34.5361 -83.5834 341° North 447 514 33,000  Level FlightAware ADS-B (KDZJ)
Tue 10:29:42 PM 34.6043 -83.6124 340° North 442 509 33,000  Level FlightAware ADS-B (KDZJ)
Tue 10:30:25 PM 34.6882 -83.6482 341° North 446 513 33,000  Level FlightAware ADS-B (KDZJ)
Tue 10:31:05 PM 34.7682 -83.6817 341° North 443 510 33,000  Level FlightAware ADS-B (KDZJ)
Tue 10:31:47 PM 34.8486 -83.7160 340° North 432 497 33,000  Level FlightAware ADS-B (KDZJ)
Tue 10:32:28 PM 34.9271 -83.7498 341° North 447 514 33,000  Level FlightAware ADS-B (KDZJ)
Tue 10:33:07 PM 35.0056 -83.7834 340° North 444 511 33,000  Level FlightAware ADS-B (KDZJ)
Tue 10:33:46 PM 35.0820 -83.8160 340° North 441 507 33,000  Level FlightAware ADS-B (KDZJ)
Tue 10:34:28 PM 35.1629 -83.8501 340° North 442 509 33,000  Level FlightAware ADS-B (KDZJ)
Tue 10:35:08 PM 35.2431 -83.8839 340° North 444 511 33,000  Level FlightAware ADS-B (KDZJ)
Tue 10:35:43 PM 35.3121 -83.9142 340° North 442 509 33,000  Level FlightAware ADS-B (KDZJ)
Tue 10:36:25 PM 35.3950 -83.9497 340° North 441 507 33,000  Level FlightAware ADS-B (KDZJ)
Tue 10:37:22 PM 35.4703 -83.9828 340° North 456 525 33,000  Level Indianapolis Center
Tue 10:38:23 PM 35.6136 -84.0436 341° North 450 518 33,000 -393 Level Indianapolis Center
Tue 10:39:24 PM 35.7300 -84.0953 340° North 450 518 32,200 -878 Descending Indianapolis Center
Tue 10:40:26 PM 35.8447 -84.1439 341° North 444 511 31,200 -976 Descending Indianapolis Center
Tue 10:41:27 PM 35.9608 -84.1953 340° North 443 510 30,200 -590 Descending Indianapolis Center
Tue 10:42:28 PM 36.0753 -84.2453 341° North 443 510 30,000 -98 Descending Indianapolis Center
Tue 10:43:29 PM 36.1892 -84.2947 341° North 441 507 30,000  Level Indianapolis Center
Tue 10:44:30 PM 36.3036 -84.3458 340° North 441 507 30,000  Level Indianapolis Center
Tue 10:45:32 PM 36.4178 -84.3958 341° North 441 507 30,000  Level Indianapolis Center
Tue 10:46:33 PM 36.5433 -84.4519 340° North 440 506 30,000 -443 Level Indianapolis Center
Tue 10:47:34 PM 36.6711 -84.5089 340° North 440 506 29,100 -1,737 Descending Indianapolis Center
Tue 10:52:46 PM 37.2394 -84.7638 340° North 385 443 19,200 -2,063 Descending FlightAware ADS-B
Tue 10:53:23 PM 37.2826 -84.7828 340° North 379 436 17,100 -2,204 Descending FlightAware ADS-B
Tue 10:54:24 PM 37.3654 -84.8208 340° North 348 400 15,600 -1,521 Descending FlightAware ADS-B
Tue 10:58:15 PM 37.7091 -85.0276 310° West 322 371 9,700 -1,153 Descending FlightAware ADS-B
Tue 10:59:31 PM 37.7770 -85.1524 303° West 325 374 9,700  Level FlightAware ADS-B
Tue 11:00:30 PM 37.8219 -85.2404 303° West 266 306 9,700 -446 Level FlightAware ADS-B
Tue 11:01:32 PM 37.8624 -85.3177 303° West 255 293 8,800 -1,190 Descending FlightAware ADS-B
Tue 11:02:31 PM 37.9007 -85.3924 304° West 250 288 7,300 -1,500 Descending FlightAware ADS-B
Tue 11:03:32 PM 37.9391 -85.4660 305° West 249 287 5,800 -1,525 Descending FlightAware ADS-B
Tue 11:04:33 PM 37.9782 -85.5415 302° West 250 288 4,200 -1,488 Descending FlightAware ADS-B
Tue 11:05:33 PM 38.0154 -85.6154 303° West 244 281 2,800 -1,000 Descending FlightAware ADS-B
Tue 11:06:33 PM 38.0493 -85.6822 303° West 195 224 2,200 -489 Descending FlightAware ADS-B
Tue 11:07:48 PM 38.0889 -85.7163 345° North 119 137 1,700 -533 Descending FlightAware ADS-B
Tue 11:08:48 PM 38.1207 -85.7269 346° North 121 139 1,000 -475 Descending FlightAware ADS-B
Tue 11:09:29 PM 38.1333 -85.7333 208° Southwest 122 140 900 -146 Descending Louisville TRACON
Tue 11:11:00 PM 38.1667 -85.7333 208° Southwest  Level FlightAware Approximate
Tue 11:14:00 PM 38.1667 -85.7333 208° Southwest  Level FlightAware Approximate
Tue 11:18:00 PM 38.1741 -85.7365 208° Southwest  Level Estimated

Login

Don't have an account? Register now (free) for customized features, flight alerts, and more!